OI42 weather

D. A. Chandler Airport
New London, Ohio, United States

Public forecast

Using degrees Fahrenheit for public forecast. Weather courtesy of forecast.io.

METAR (pilot weather report)

Closest report is Lorain County Regional Airport, 18.0 nm (33.4 km) NE. Retrieved 2019/03/24 03:53 UTC (1 hour ago):

KLPR 240353Z AUTO VRB03KT 10SM CLR M01/M06 A3025 RMK AO2 SLP252 T10061056

TAF (pilot weather forecast)

Forecast is more than 12 hours old.

Closest forecast is Mansfield Lahm Regional Airport, 18.9 nm (34.9 km) S. Retrieved 2019/03/23 00:22 UTC (1 day ago):

TAF KMFD 232320Z 2400/2424 24004KT P6SM SKC FM241200 20007KT P6SM OVC250 FM241600 22008KT P6SM OVC100 FM242000 22008KT P6SM OVC045 FM242300 22006KT 5SM -RA BR OVC035